createdAt,value
2022-08-11T00:01:54.468Z,15.90
2022-08-11T00:04:25.154Z,15.80
2022-08-11T00:06:53.411Z,15.80
2022-08-11T00:09:23.026Z,15.80
2022-08-11T00:11:58.688Z,15.70
2022-08-11T00:14:37.062Z,15.70
2022-08-11T00:17:10.934Z,15.70
2022-08-11T00:20:12.616Z,15.70
2022-08-11T00:22:40.496Z,15.70
2022-08-11T00:25:21.694Z,15.60
2022-08-11T00:27:49.479Z,15.60
2022-08-11T00:30:17.798Z,15.60
2022-08-11T00:32:55.346Z,15.60
2022-08-11T00:35:56.997Z,15.60
2022-08-11T00:38:16.010Z,15.60
2022-08-11T00:40:55.087Z,15.60
2022-08-11T00:43:57.231Z,15.50
2022-08-11T00:46:27.421Z,15.40
2022-08-11T00:49:12.133Z,15.40
2022-08-11T00:52:10.249Z,15.40
2022-08-11T00:54:58.573Z,15.40
2022-08-11T00:57:47.801Z,15.40
2022-08-11T01:00:43.794Z,15.40
2022-08-11T01:03:51.459Z,15.40
2022-08-11T01:06:43.148Z,15.30
2022-08-11T01:09:25.147Z,15.30
2022-08-11T01:12:29.531Z,15.30
2022-08-11T01:15:40.239Z,15.30
2022-08-11T01:18:44.819Z,15.20
2022-08-11T01:21:49.654Z,15.20
2022-08-11T01:24:45.532Z,15.20
2022-08-11T01:27:43.810Z,15.20
2022-08-11T01:30:39.264Z,15.50
2022-08-11T01:33:25.112Z,15.10
2022-08-11T01:36:29.604Z,15.20
2022-08-11T01:38:59.871Z,15.20
2022-08-11T01:42:06.890Z,15.10
2022-08-11T01:44:44.066Z,15.10
2022-08-11T01:47:34.090Z,15.10
2022-08-11T01:50:10.704Z,15.10
2022-08-11T01:53:05.048Z,15.00
2022-08-11T01:55:48.810Z,15.00
2022-08-11T01:58:29.354Z,15.00
2022-08-11T02:01:38.093Z,15.00
2022-08-11T02:04:14.230Z,14.90
2022-08-11T02:06:58.508Z,15.00
2022-08-11T02:10:36.575Z,15.00
2022-08-11T02:13:36.850Z,14.90
2022-08-11T02:16:27.208Z,14.80
2022-08-11T02:19:35.963Z,14.80
2022-08-11T02:22:35.022Z,14.80
2022-08-11T02:25:07.757Z,14.70
2022-08-11T02:27:50.074Z,14.70
2022-08-11T02:30:25.075Z,14.70
2022-08-11T02:33:16.421Z,14.60
2022-08-11T02:35:47.803Z,14.70
2022-08-11T02:38:21.910Z,14.70
2022-08-11T02:41:43.494Z,14.60
2022-08-11T02:44:33.843Z,14.60
2022-08-11T02:47:38.762Z,14.60
2022-08-11T02:50:17.533Z,14.60
2022-08-11T02:52:52.469Z,14.60
2022-08-11T02:55:57.057Z,14.50
2022-08-11T02:59:12.782Z,14.50
2022-08-11T03:01:48.488Z,14.50
2022-08-11T03:04:37.461Z,14.50
2022-08-11T03:07:35.029Z,14.50
2022-08-11T03:10:30.676Z,14.50
2022-08-11T03:13:47.975Z,14.50
2022-08-11T03:16:45.805Z,14.50
2022-08-11T03:19:18.547Z,14.60
2022-08-11T03:22:08.306Z,14.60
2022-08-11T03:25:04.153Z,14.60
2022-08-11T03:27:39.310Z,14.60
2022-08-11T03:30:26.529Z,14.70
2022-08-11T03:33:34.571Z,14.70
2022-08-11T03:36:20.087Z,14.70
2022-08-11T03:38:52.831Z,14.70
2022-08-11T03:42:02.059Z,14.70
2022-08-11T03:44:37.776Z,14.80
2022-08-11T03:47:33.215Z,14.80
2022-08-11T03:50:20.071Z,14.90
2022-08-11T03:53:06.636Z,15.00
2022-08-11T03:56:19.034Z,15.00
2022-08-11T03:59:12.517Z,15.10
2022-08-11T04:01:49.124Z,15.20
2022-08-11T04:04:19.270Z,15.40
2022-08-11T04:07:23.433Z,15.60
2022-08-11T04:10:07.848Z,16.70
2022-08-11T04:13:19.800Z,18.80
2022-08-11T04:16:12.542Z,21.50
2022-08-11T04:18:42.724Z,23.60
2022-08-11T04:21:47.278Z,25.10
2022-08-11T04:24:36.972Z,26.50
2022-08-11T04:27:43.168Z,27.90
2022-08-11T04:30:27.430Z,29.20
2022-08-11T04:33:03.203Z,30.20
2022-08-11T04:36:09.671Z,31.20
2022-08-11T04:39:08.752Z,31.80
2022-08-11T04:42:35.373Z,32.70
2022-08-11T04:46:04.516Z,33.50
2022-08-11T04:49:33.345Z,34.20
2022-08-11T04:52:37.777Z,34.70
2022-08-11T04:55:39.295Z,35.40
2022-08-11T04:58:56.096Z,35.70
2022-08-11T05:01:41.249Z,36.30
2022-08-11T05:05:30.906Z,36.80
2022-08-11T05:08:27.970Z,37.40
2022-08-11T05:11:30.316Z,38.30
2022-08-11T05:14:31.422Z,38.50
2022-08-11T05:17:31.275Z,39.10
2022-08-11T05:20:19.639Z,39.70
2022-08-11T05:23:10.631Z,40.10
2022-08-11T05:26:25.414Z,40.70
2022-08-11T05:29:21.396Z,41.10
2022-08-11T05:32:15.493Z,41.90
2022-08-11T05:34:54.245Z,42.30
2022-08-11T05:37:32.895Z,42.60
2022-08-11T05:40:27.093Z,43.00
2022-08-11T05:43:24.791Z,43.00
2022-08-11T05:46:18.728Z,43.00
2022-08-11T05:49:05.853Z,43.30
2022-08-11T05:52:05.517Z,43.70
2022-08-11T05:55:06.330Z,43.80
2022-08-11T05:57:50.424Z,44.40
2022-08-11T06:00:19.996Z,44.90
2022-08-11T06:02:54.761Z,44.90
2022-08-11T06:05:37.316Z,44.80
2022-08-11T06:08:12.361Z,44.50
2022-08-11T06:10:42.274Z,44.80
2022-08-11T06:13:10.911Z,45.00
2022-08-11T06:15:49.887Z,45.40
2022-08-11T06:18:18.164Z,45.80
2022-08-11T06:20:58.234Z,45.90
2022-08-11T06:23:32.074Z,46.10
2022-08-11T06:26:00.316Z,46.00
2022-08-11T06:28:37.447Z,46.10
2022-08-11T06:31:20.240Z,46.40
2022-08-11T06:33:50.498Z,46.30
2022-08-11T06:36:31.171Z,46.50
2022-08-11T06:39:44.195Z,46.80
2022-08-11T06:42:24.605Z,46.70
2022-08-11T06:44:58.388Z,46.80
2022-08-11T06:47:26.303Z,46.90
2022-08-11T06:50:16.731Z,46.80
2022-08-11T06:52:46.903Z,46.60
2022-08-11T06:55:56.898Z,46.60
2022-08-11T06:59:06.953Z,46.40
2022-08-11T07:02:01.898Z,46.10
2022-08-11T07:04:43.230Z,45.40
2022-08-11T07:08:33.153Z,45.20
2022-08-11T07:11:43.444Z,44.90
2022-08-11T07:14:35.044Z,44.00
2022-08-11T07:17:11.214Z,43.60
2022-08-11T07:20:02.149Z,42.90
2022-08-11T07:22:51.075Z,41.80
2022-08-11T07:25:37.825Z,39.70
2022-08-11T07:28:44.339Z,36.90
2022-08-11T07:31:21.949Z,34.50
2022-08-11T07:34:05.516Z,33.30
2022-08-11T07:36:41.124Z,32.80
2022-08-11T07:39:15.790Z,32.20
2022-08-11T07:41:43.779Z,31.60
2022-08-11T07:44:11.705Z,31.00
2022-08-11T07:47:11.046Z,30.50
2022-08-11T07:49:59.118Z,29.90
2022-08-11T07:52:33.957Z,29.50
2022-08-11T07:55:05.091Z,29.40
2022-08-11T07:58:11.154Z,29.40
2022-08-11T08:01:25.008Z,29.50
2022-08-11T08:04:11.078Z,29.40
2022-08-11T08:06:57.725Z,29.10
2022-08-11T08:09:44.075Z,28.80
2022-08-11T08:12:31.559Z,28.50
2022-08-11T08:15:18.054Z,28.20
2022-08-11T08:18:09.721Z,28.00
2022-08-11T08:20:52.148Z,27.90
2022-08-11T08:23:33.758Z,27.90
2022-08-11T08:26:04.734Z,27.80
2022-08-11T08:28:33.778Z,27.70
2022-08-11T08:31:02.447Z,27.50
2022-08-11T08:33:32.141Z,27.50
2022-08-11T08:36:17.035Z,27.60
2022-08-11T08:38:51.282Z,27.50
2022-08-11T08:41:38.515Z,27.50
2022-08-11T08:44:36.763Z,27.30
2022-08-11T08:46:59.961Z,27.30
2022-08-11T08:49:41.962Z,27.30
2022-08-11T08:52:26.296Z,27.30
2022-08-11T08:55:04.772Z,27.40
2022-08-11T08:57:39.223Z,27.30
2022-08-11T09:00:07.731Z,27.20
2022-08-11T09:02:37.580Z,27.10
2022-08-11T09:05:05.763Z,27.30
2022-08-11T09:07:38.524Z,27.30
2022-08-11T09:10:08.410Z,27.20
2022-08-11T09:12:38.716Z,27.00
2022-08-11T09:15:10.170Z,26.90
2022-08-11T09:17:44.893Z,26.90
2022-08-11T09:20:24.717Z,26.90
2022-08-11T09:26:21.949Z,26.70
2022-08-11T09:28:59.031Z,26.60
2022-08-11T09:31:27.015Z,26.80
2022-08-11T09:33:55.591Z,26.90
2022-08-11T09:36:41.683Z,27.00
2022-08-11T09:39:30.813Z,27.30
2022-08-11T09:42:03.399Z,27.50
2022-08-11T09:44:49.528Z,27.50
2022-08-11T09:47:26.150Z,27.40
2022-08-11T09:50:00.219Z,27.40
2022-08-11T09:52:32.491Z,27.50
2022-08-11T09:55:01.192Z,27.50
2022-08-11T09:57:48.527Z,27.40
2022-08-11T10:00:16.391Z,27.20
2022-08-11T10:02:47.282Z,27.00
2022-08-11T10:05:37.832Z,27.00
2022-08-11T10:08:07.520Z,26.90
2022-08-11T10:10:39.227Z,26.70
2022-08-11T10:14:30.673Z,26.60
2022-08-11T10:16:15.295Z,26.60
2022-08-11T10:18:52.764Z,26.60
2022-08-11T10:21:36.715Z,26.50
2022-08-11T10:24:24.716Z,26.30
2022-08-11T10:26:54.935Z,26.10
2022-08-11T10:29:49.744Z,26.00
2022-08-11T10:32:52.273Z,25.90
2022-08-11T10:35:32.154Z,26.10
2022-08-11T10:38:07.729Z,26.30
2022-08-11T10:40:40.705Z,26.50
2022-08-11T10:43:17.681Z,26.60
2022-08-11T10:46:25.772Z,26.50
2022-08-11T10:48:58.818Z,26.50
2022-08-11T10:51:50.867Z,26.40
2022-08-11T10:54:41.512Z,26.10
2022-08-11T10:57:29.081Z,25.80
2022-08-11T10:59:57.917Z,25.70
2022-08-11T11:02:31.296Z,25.80
2022-08-11T11:05:09.939Z,26.00
2022-08-11T11:07:49.804Z,26.30
2022-08-11T11:10:17.196Z,26.60
2022-08-11T11:13:04.697Z,26.90
2022-08-11T11:15:54.002Z,26.90
2022-08-11T11:18:21.454Z,26.70
2022-08-11T11:21:04.601Z,26.60
2022-08-11T11:23:41.658Z,26.40
2022-08-11T11:26:56.055Z,26.30
2022-08-11T11:29:42.027Z,26.10
2022-08-11T11:32:27.700Z,25.90
2022-08-11T11:35:18.161Z,26.00
2022-08-11T11:38:03.638Z,26.10
2022-08-11T11:40:33.185Z,26.20
2022-08-11T11:43:01.192Z,26.40
2022-08-11T11:45:28.621Z,26.60
2022-08-11T11:47:58.419Z,26.70
2022-08-11T11:50:36.572Z,26.70
2022-08-11T11:53:09.878Z,26.60
2022-08-11T11:55:37.955Z,26.40
2022-08-11T11:58:24.650Z,26.30
2022-08-11T12:01:12.495Z,26.30
2022-08-11T12:03:40.701Z,26.10
2022-08-11T12:06:09.639Z,26.00
2022-08-11T12:08:37.982Z,25.90
2022-08-11T12:11:29.200Z,26.00
2022-08-11T12:14:02.188Z,26.00
2022-08-11T12:16:34.220Z,26.00
2022-08-11T12:19:13.557Z,26.00
2022-08-11T12:22:01.153Z,26.00
2022-08-11T12:24:48.954Z,26.10
2022-08-11T12:27:24.842Z,26.20
2022-08-11T12:29:59.647Z,26.30
2022-08-11T12:32:32.728Z,26.30
2022-08-11T12:35:00.548Z,26.30
2022-08-11T12:37:31.648Z,26.40
2022-08-11T12:40:43.757Z,26.50
2022-08-11T12:43:39.535Z,26.50
2022-08-11T12:46:14.263Z,26.50
2022-08-11T12:49:04.941Z,26.40
2022-08-11T12:52:11.189Z,26.40
2022-08-11T12:54:57.869Z,26.40
2022-08-11T12:57:51.326Z,26.40
2022-08-11T13:00:39.345Z,26.50
2022-08-11T13:03:28.050Z,26.70
2022-08-11T13:06:02.918Z,26.90
2022-08-11T13:08:35.880Z,27.20
2022-08-11T13:11:23.045Z,27.40
2022-08-11T13:13:57.408Z,27.60
2022-08-11T13:16:57.183Z,27.80
2022-08-11T13:19:25.171Z,27.80
2022-08-11T13:21:53.653Z,27.80
2022-08-11T13:24:22.576Z,27.70
2022-08-11T13:26:52.455Z,27.60
2022-08-11T13:29:24.410Z,27.60
2022-08-11T13:31:58.687Z,27.50
2022-08-11T13:34:28.042Z,27.30
2022-08-11T13:36:59.440Z,27.10
2022-08-11T13:39:29.074Z,27.10
2022-08-11T13:41:59.604Z,27.10
2022-08-11T13:44:30.394Z,27.10
2022-08-11T13:47:08.776Z,27.00
2022-08-11T13:49:39.815Z,27.10
2022-08-11T13:52:13.624Z,27.30
2022-08-11T13:54:42.684Z,27.60
2022-08-11T13:58:06.562Z,27.70
2022-08-11T14:00:12.900Z,27.70
2022-08-11T14:02:52.988Z,27.60
2022-08-11T14:05:28.208Z,27.60
2022-08-11T14:08:37.808Z,27.50
2022-08-11T14:12:23.465Z,27.30
2022-08-11T14:14:13.154Z,27.10
2022-08-11T14:16:44.002Z,26.90
2022-08-11T14:19:15.216Z,26.80
2022-08-11T14:22:07.078Z,26.80
2022-08-11T14:24:49.648Z,26.90
2022-08-11T14:28:32.098Z,26.90
2022-08-11T14:30:26.841Z,27.10
2022-08-11T14:32:56.059Z,27.30
2022-08-11T14:35:27.573Z,27.60
2022-08-11T14:37:57.222Z,27.80
2022-08-11T14:40:43.577Z,28.00
2022-08-11T14:44:13.367Z,28.10
2022-08-11T14:46:35.532Z,28.10
2022-08-11T14:49:04.542Z,28.20
2022-08-11T14:51:34.180Z,28.00
2022-08-11T14:54:20.216Z,27.60
2022-08-11T14:56:47.917Z,27.30
2022-08-11T14:59:15.455Z,27.00
2022-08-11T15:02:01.917Z,26.70
2022-08-11T15:04:36.122Z,26.50
2022-08-11T15:07:04.399Z,26.20
2022-08-11T15:12:33.795Z,25.70
2022-08-11T15:15:21.387Z,25.60
2022-08-11T15:17:50.855Z,25.50
2022-08-11T15:20:38.493Z,25.50
2022-08-11T15:23:24.697Z,25.50
2022-08-11T15:26:05.647Z,25.50
2022-08-11T15:28:57.676Z,25.40
2022-08-11T15:31:27.813Z,25.50
2022-08-11T15:34:19.983Z,25.50
2022-08-11T15:37:08.205Z,25.60
2022-08-11T15:40:05.105Z,25.80
2022-08-11T15:42:55.281Z,25.90
2022-08-11T15:45:43.720Z,26.10
2022-08-11T15:48:14.651Z,26.20
2022-08-11T15:50:48.256Z,26.20
2022-08-11T15:53:32.739Z,26.40
2022-08-11T15:56:01.088Z,26.40
2022-08-11T15:59:33.721Z,26.40
2022-08-11T16:02:00.416Z,26.40
2022-08-11T16:04:30.195Z,26.20
2022-08-11T16:07:14.621Z,26.00
2022-08-11T16:09:55.007Z,25.80
2022-08-11T16:12:30.491Z,25.60
2022-08-11T16:15:23.784Z,25.40
2022-08-11T16:17:55.995Z,25.40
2022-08-11T16:20:26.130Z,25.20
2022-08-11T16:23:01.839Z,25.00
2022-08-11T16:27:01.428Z,24.90
2022-08-11T16:28:22.144Z,24.90
2022-08-11T16:30:50.981Z,24.80
2022-08-11T16:33:49.087Z,24.70
2022-08-11T16:36:29.783Z,24.70
2022-08-11T16:38:59.480Z,24.70
2022-08-11T16:41:49.359Z,24.60
2022-08-11T16:44:38.326Z,24.50
2022-08-11T16:47:08.549Z,24.50
2022-08-11T16:49:52.229Z,24.40
2022-08-11T16:52:22.780Z,24.40
2022-08-11T16:54:50.178Z,24.40
2022-08-11T16:57:45.860Z,24.30
2022-08-11T17:00:16.370Z,24.20
2022-08-11T17:03:11.019Z,24.20
2022-08-11T17:06:10.972Z,24.10
2022-08-11T17:09:04.972Z,24.10
2022-08-11T17:12:09.052Z,24.00
2022-08-11T17:14:48.389Z,24.00
2022-08-11T17:17:20.704Z,23.90
2022-08-11T17:20:38.813Z,23.90
2022-08-11T17:23:00.071Z,24.00
2022-08-11T17:25:28.470Z,24.00
2022-08-11T17:27:56.993Z,24.10
2022-08-11T17:30:45.462Z,24.20
2022-08-11T17:33:34.464Z,24.30
2022-08-11T17:36:02.689Z,24.30
2022-08-11T17:38:30.525Z,24.30
2022-08-11T17:41:22.980Z,24.30
2022-08-11T17:44:10.271Z,24.20
2022-08-11T17:47:03.664Z,24.20
2022-08-11T17:49:37.683Z,24.10
2022-08-11T17:52:25.556Z,24.10
2022-08-11T17:55:13.930Z,24.00
2022-08-11T17:58:01.369Z,23.90
2022-08-11T18:00:29.788Z,23.80
2022-08-11T18:03:18.986Z,23.70
2022-08-11T18:05:49.273Z,23.60
2022-08-11T18:08:37.829Z,23.60
2022-08-11T18:12:06.255Z,23.40
2022-08-11T18:14:34.115Z,23.30
2022-08-11T18:17:20.271Z,23.20
2022-08-11T18:20:08.451Z,23.10
2022-08-11T18:23:01.585Z,23.00
2022-08-11T18:25:57.654Z,22.90
2022-08-11T18:28:47.898Z,22.90
2022-08-11T18:31:35.616Z,22.80
2022-08-11T18:34:25.850Z,22.70
2022-08-11T18:37:27.201Z,22.60
2022-08-11T18:40:41.262Z,22.50
2022-08-11T18:43:31.432Z,22.40
2022-08-11T18:46:23.592Z,22.30
2022-08-11T18:49:19.304Z,22.20
2022-08-11T18:52:09.166Z,22.10
2022-08-11T18:54:58.537Z,22.00
2022-08-11T18:57:49.870Z,22.00
2022-08-11T19:00:40.370Z,22.00
2022-08-11T19:03:28.284Z,22.00
2022-08-11T19:06:39.813Z,21.90
2022-08-11T19:09:26.400Z,21.80
2022-08-11T19:12:15.527Z,21.70
2022-08-11T19:15:03.294Z,21.60
2022-08-11T19:17:51.029Z,21.50
2022-08-11T19:20:40.545Z,21.40
2022-08-11T19:23:28.616Z,21.20
2022-08-11T19:26:17.226Z,21.20
2022-08-11T19:29:06.625Z,21.00
2022-08-11T19:31:53.676Z,20.90
2022-08-11T19:34:41.967Z,20.80
2022-08-11T19:37:29.234Z,20.80
2022-08-11T19:40:20.560Z,20.70
2022-08-11T19:43:23.682Z,20.60
2022-08-11T19:46:15.909Z,20.60
2022-08-11T19:49:03.958Z,20.40
2022-08-11T19:51:54.215Z,20.40
2022-08-11T19:54:45.461Z,20.40
2022-08-11T19:57:39.308Z,20.30
2022-08-11T20:00:33.397Z,20.30
2022-08-11T20:03:22.295Z,20.20
2022-08-11T20:06:09.511Z,20.10
2022-08-11T20:08:59.890Z,20.10
2022-08-11T20:11:50.886Z,20.10
2022-08-11T20:14:39.543Z,20.00
2022-08-11T20:17:30.057Z,19.90
2022-08-11T20:20:18.101Z,19.90
2022-08-11T20:23:08.198Z,19.90
2022-08-11T20:26:03.437Z,19.80
2022-08-11T20:28:55.553Z,19.80
2022-08-11T20:31:42.172Z,19.70
2022-08-11T20:34:29.993Z,19.60
2022-08-11T20:37:20.148Z,19.60
2022-08-11T20:40:08.662Z,19.50
2022-08-11T20:42:55.610Z,19.40
2022-08-11T20:45:52.118Z,19.40
2022-08-11T20:48:45.626Z,19.30
2022-08-11T20:51:38.581Z,19.30
2022-08-11T20:54:38.313Z,19.20
2022-08-11T21:00:39.269Z,19.00
2022-08-11T21:03:35.509Z,18.90
2022-08-11T21:06:26.251Z,18.90
2022-08-11T21:09:20.289Z,18.80
2022-08-11T21:12:07.758Z,18.80
2022-08-11T21:14:59.705Z,18.80
2022-08-11T21:18:00.695Z,18.70
2022-08-11T21:20:55.764Z,18.60
2022-08-11T21:23:43.218Z,18.60
2022-08-11T21:26:32.663Z,18.50
2022-08-11T21:29:19.377Z,18.40
2022-08-11T21:32:06.730Z,18.40
2022-08-11T21:34:53.993Z,18.30
2022-08-11T21:37:41.494Z,18.30
2022-08-11T21:40:29.187Z,18.20
2022-08-11T21:43:16.943Z,18.20
2022-08-11T21:46:02.850Z,18.10
2022-08-11T21:48:50.359Z,18.10
2022-08-11T21:51:36.126Z,18.00
2022-08-11T21:54:22.936Z,18.00
2022-08-11T21:57:09.340Z,18.00
2022-08-11T22:00:11.704Z,18.00
2022-08-11T22:02:58.370Z,17.90
2022-08-11T22:05:49.384Z,17.80
2022-08-11T22:08:35.637Z,17.80
2022-08-11T22:11:32.203Z,17.80
2022-08-11T22:14:23.422Z,17.70
2022-08-11T22:17:09.997Z,17.70
2022-08-11T22:19:57.850Z,17.70
2022-08-11T22:22:52.345Z,17.60
2022-08-11T22:25:53.695Z,17.60
2022-08-11T22:28:41.909Z,17.50
2022-08-11T22:31:29.857Z,17.50
2022-08-11T22:34:15.956Z,17.60
2022-08-11T22:37:03.182Z,17.40
2022-08-11T22:40:01.603Z,17.30
2022-08-11T22:42:51.327Z,17.30
2022-08-11T22:45:38.827Z,17.20
2022-08-11T22:48:26.309Z,17.20
2022-08-11T22:51:13.447Z,17.20
2022-08-11T22:53:59.716Z,17.10
2022-08-11T22:56:48.393Z,17.10
2022-08-11T22:59:36.178Z,17.00
2022-08-11T23:02:24.474Z,17.00
2022-08-11T23:05:10.476Z,16.90
2022-08-11T23:07:57.829Z,16.80
2022-08-11T23:10:44.795Z,16.80
2022-08-11T23:13:31.853Z,16.70
2022-08-11T23:16:18.811Z,16.70
2022-08-11T23:19:06.849Z,16.70
2022-08-11T23:21:53.577Z,16.60
2022-08-11T23:24:40.457Z,16.60
2022-08-11T23:27:27.925Z,16.60
2022-08-11T23:30:19.244Z,16.60
2022-08-11T23:33:09.915Z,16.50
2022-08-11T23:36:03.367Z,16.50
2022-08-11T23:38:51.816Z,16.50
2022-08-11T23:41:38.049Z,16.50
2022-08-11T23:44:25.550Z,16.40
2022-08-11T23:47:13.984Z,16.40
2022-08-11T23:50:00.991Z,16.40
2022-08-11T23:52:47.865Z,16.40
2022-08-11T23:55:33.831Z,16.40
2022-08-11T23:58:20.175Z,16.30
